createdAt,value
2019-06-20T00:00:29.485Z,78.02
2019-06-20T00:02:55.746Z,78.89
2019-06-20T00:05:22.781Z,79.13
2019-06-20T00:07:49.118Z,78.90
2019-06-20T00:10:15.425Z,79.09
2019-06-20T00:12:41.517Z,78.54
2019-06-20T00:15:07.907Z,77.91
2019-06-20T00:17:33.971Z,76.53
2019-06-20T00:20:00.052Z,77.12
2019-06-20T00:22:26.344Z,76.26
2019-06-20T00:24:52.535Z,76.49
2019-06-20T00:27:18.760Z,76.43
2019-06-20T00:29:44.962Z,76.35
2019-06-20T00:32:11.158Z,76.07
2019-06-20T00:34:37.254Z,76.20
2019-06-20T00:37:03.431Z,76.62
2019-06-20T00:39:29.526Z,77.47
2019-06-20T00:41:55.592Z,77.44
2019-06-20T00:44:21.823Z,76.79
2019-06-20T00:46:47.996Z,77.00
2019-06-20T00:49:15.290Z,76.56
2019-06-20T00:51:41.625Z,76.35
2019-06-20T00:54:07.776Z,76.20
2019-06-20T00:56:34.042Z,76.97
2019-06-20T00:59:00.261Z,78.35
2019-06-20T01:01:26.738Z,78.75
2019-06-20T01:03:54.168Z,79.18
2019-06-20T01:06:20.319Z,79.84
2019-06-20T01:08:46.377Z,79.80
2019-06-20T01:11:12.501Z,79.07
2019-06-20T01:13:38.697Z,78.94
2019-06-20T01:16:04.925Z,78.70
2019-06-20T01:18:31.012Z,78.18
2019-06-20T01:21:00.552Z,78.22
2019-06-20T01:23:26.781Z,77.78
2019-06-20T01:25:52.973Z,77.72
2019-06-20T01:28:19.057Z,77.99
2019-06-20T01:30:45.699Z,78.20
2019-06-20T01:33:11.768Z,79.11
2019-06-20T01:35:38.249Z,80.18
2019-06-20T01:38:04.664Z,80.42
2019-06-20T01:40:30.839Z,80.26
2019-06-20T01:42:57.195Z,79.42
2019-06-20T01:45:23.954Z,78.69
2019-06-20T01:47:50.521Z,78.00
2019-06-20T01:50:16.957Z,78.07
2019-06-20T01:52:43.216Z,78.13
2019-06-20T01:55:09.526Z,79.50
2019-06-20T01:57:35.601Z,80.85
2019-06-20T02:00:03.933Z,80.55
2019-06-20T02:02:30.580Z,79.51
2019-06-20T02:04:57.079Z,81.05
2019-06-20T02:07:23.344Z,81.90
2019-06-20T02:09:49.413Z,83.91
2019-06-20T02:12:15.634Z,84.16
2019-06-20T02:14:44.491Z,82.87
2019-06-20T02:17:10.962Z,81.77
2019-06-20T02:19:37.285Z,80.92
2019-06-20T02:22:03.568Z,79.99
2019-06-20T02:24:29.846Z,79.32
2019-06-20T02:26:55.942Z,79.30
2019-06-20T02:29:22.696Z,80.94
2019-06-20T02:31:48.792Z,82.81
2019-06-20T02:34:14.856Z,82.93
2019-06-20T02:36:41.061Z,81.49
2019-06-20T02:39:07.504Z,80.10
2019-06-20T02:41:34.495Z,79.59
2019-06-20T02:44:01.674Z,80.77
2019-06-20T02:46:28.386Z,81.05
2019-06-20T02:48:54.519Z,81.78
2019-06-20T02:51:23.775Z,81.33
2019-06-20T02:53:50.821Z,81.17
2019-06-20T02:56:16.995Z,80.75
2019-06-20T02:58:43.075Z,80.07
2019-06-20T03:01:09.583Z,79.73
2019-06-20T03:03:35.708Z,78.75
2019-06-20T03:06:02.059Z,79.37
2019-06-20T03:08:28.635Z,78.61
2019-06-20T03:10:54.890Z,79.35
2019-06-20T03:13:21.000Z,79.88
2019-06-20T03:15:50.003Z,80.05
2019-06-20T03:18:18.044Z,79.21
2019-06-20T03:20:44.086Z,78.73
2019-06-20T03:23:10.298Z,79.18
2019-06-20T03:25:36.493Z,79.56
2019-06-20T03:28:02.961Z,80.03
2019-06-20T03:30:29.420Z,81.67
2019-06-20T03:32:55.604Z,82.58
2019-06-20T03:35:21.669Z,83.99
2019-06-20T03:37:50.220Z,86.54
2019-06-20T03:40:16.338Z,86.66
2019-06-20T03:42:43.059Z,86.63
2019-06-20T03:45:09.856Z,86.05
2019-06-20T03:47:36.109Z,85.06
2019-06-20T03:50:05.437Z,85.04
2019-06-20T03:52:31.633Z,84.97
2019-06-20T03:54:57.685Z,85.51
2019-06-20T03:57:23.909Z,86.04
2019-06-20T03:59:49.996Z,84.57
2019-06-20T04:02:16.148Z,83.18
2019-06-20T04:04:42.278Z,82.30
2019-06-20T04:07:09.085Z,81.81
2019-06-20T04:09:35.319Z,80.87
2019-06-20T04:12:01.491Z,81.30
2019-06-20T04:14:27.780Z,81.33
2019-06-20T04:16:54.202Z,81.37
2019-06-20T04:19:20.332Z,82.28
2019-06-20T04:21:46.443Z,81.92
2019-06-20T04:24:12.596Z,82.27
2019-06-20T04:26:38.991Z,82.02
2019-06-20T04:29:05.180Z,82.57
2019-06-20T04:31:31.271Z,81.45
2019-06-20T04:33:57.334Z,80.68
2019-06-20T04:36:23.510Z,80.58
2019-06-20T04:38:49.683Z,79.73
2019-06-20T04:41:15.731Z,79.07
2019-06-20T04:43:41.899Z,81.63
2019-06-20T04:46:08.108Z,81.09
2019-06-20T04:48:34.299Z,79.98
2019-06-20T04:51:00.361Z,78.62
2019-06-20T04:53:26.672Z,76.39
2019-06-20T04:55:52.818Z,77.35
2019-06-20T04:58:18.874Z,75.93
2019-06-20T05:00:45.101Z,74.88
2019-06-20T05:03:11.279Z,75.25
2019-06-20T05:05:37.571Z,74.37
2019-06-20T05:08:03.645Z,75.22
2019-06-20T05:10:29.910Z,74.99
2019-06-20T05:12:56.248Z,72.93
2019-06-20T05:15:22.557Z,68.82
2019-06-20T05:17:48.695Z,64.99
2019-06-20T05:20:16.970Z,61.66
2019-06-20T05:22:43.062Z,61.74
2019-06-20T05:25:09.499Z,62.13
2019-06-20T05:27:35.858Z,60.73
2019-06-20T05:30:07.859Z,61.02
2019-06-20T05:32:34.095Z,60.55
2019-06-20T05:35:02.958Z,60.06
2019-06-20T05:37:28.410Z,61.48
2019-06-20T05:39:54.633Z,64.46
2019-06-20T05:42:20.691Z,66.16
2019-06-20T05:44:46.802Z,65.33
2019-06-20T05:47:14.110Z,66.54
2019-06-20T05:49:40.593Z,66.70
2019-06-20T05:52:06.737Z,68.28
2019-06-20T05:54:32.866Z,67.68
2019-06-20T05:56:59.027Z,68.46
2019-06-20T05:59:25.765Z,68.93
2019-06-20T06:01:56.077Z,70.18
2019-06-20T06:04:20.607Z,69.90
2019-06-20T06:06:47.572Z,61.88
2019-06-20T06:09:14.022Z,58.81
2019-06-20T06:11:41.377Z,52.45
2019-06-20T06:14:07.599Z,53.23
2019-06-20T06:16:33.824Z,49.73
2019-06-20T06:18:59.930Z,46.94
2019-06-20T06:21:26.297Z,47.67
2019-06-20T06:23:55.209Z,48.35
2019-06-20T06:26:24.397Z,48.03
2019-06-20T06:28:52.370Z,50.45
2019-06-20T06:31:18.492Z,53.13
2019-06-20T06:33:44.611Z,54.67
2019-06-20T06:36:11.799Z,53.85
2019-06-20T06:38:38.211Z,50.27
2019-06-20T06:41:04.443Z,49.09
2019-06-20T06:43:30.503Z,47.06
2019-06-20T06:45:56.757Z,47.21
2019-06-20T06:48:22.784Z,46.25
2019-06-20T06:50:48.971Z,48.94
2019-06-20T06:53:15.039Z,47.70
2019-06-20T06:55:41.095Z,49.00
2019-06-20T06:58:07.207Z,49.47
2019-06-20T07:00:34.430Z,49.20
2019-06-20T07:03:00.638Z,48.10
2019-06-20T07:05:26.954Z,47.14
2019-06-20T07:07:53.073Z,47.05
2019-06-20T07:10:19.445Z,47.91
2019-06-20T07:12:45.662Z,47.33
2019-06-20T07:15:14.184Z,48.19
2019-06-20T07:17:40.740Z,48.33
2019-06-20T07:20:08.603Z,46.96
2019-06-20T07:22:35.183Z,48.11
2019-06-20T07:25:01.883Z,49.50
2019-06-20T07:27:28.215Z,50.21
2019-06-20T07:29:54.324Z,51.22
2019-06-20T07:32:20.583Z,52.86
2019-06-20T07:34:47.644Z,53.53
2019-06-20T07:37:14.744Z,52.60
2019-06-20T07:39:40.926Z,50.80
2019-06-20T07:42:06.988Z,51.33
2019-06-20T07:44:33.134Z,51.87
2019-06-20T07:46:59.229Z,52.01
2019-06-20T07:49:25.322Z,51.41
2019-06-20T07:51:51.720Z,54.15
2019-06-20T07:54:17.940Z,54.40
2019-06-20T07:56:43.987Z,54.77
2019-06-20T07:59:10.795Z,55.54
2019-06-20T08:01:37.048Z,56.06
2019-06-20T08:04:03.433Z,56.20
2019-06-20T08:06:29.739Z,56.13
2019-06-20T08:08:55.836Z,57.75
2019-06-20T08:11:22.024Z,59.22
2019-06-20T08:13:48.186Z,59.17
2019-06-20T08:16:14.238Z,59.57
2019-06-20T08:18:40.564Z,57.75
2019-06-20T08:21:06.635Z,57.33
2019-06-20T08:23:32.713Z,57.70
2019-06-20T08:26:00.519Z,56.10
2019-06-20T08:28:27.735Z,56.69
2019-06-20T08:30:54.061Z,57.20
2019-06-20T08:33:20.227Z,58.56
2019-06-20T08:35:46.503Z,55.72
2019-06-20T08:38:12.557Z,55.39
2019-06-20T08:40:38.875Z,53.00
2019-06-20T08:43:06.339Z,57.48
2019-06-20T08:45:34.703Z,55.92
2019-06-20T08:48:02.410Z,57.86
2019-06-20T08:50:30.103Z,56.71
2019-06-20T08:52:58.006Z,54.21
2019-06-20T08:55:24.649Z,55.84
2019-06-20T08:57:50.837Z,55.88
2019-06-20T09:00:19.404Z,53.85
2019-06-20T09:02:45.669Z,55.06
2019-06-20T09:05:12.663Z,55.83
2019-06-20T09:07:41.715Z,54.23
2019-06-20T09:10:08.126Z,53.48
2019-06-20T09:12:34.496Z,52.25
2019-06-20T09:15:01.251Z,53.28
2019-06-20T09:17:27.642Z,54.41
2019-06-20T09:19:54.413Z,52.71
2019-06-20T09:22:20.532Z,52.76
2019-06-20T09:24:47.700Z,51.04
2019-06-20T09:27:13.801Z,52.10
2019-06-20T09:29:42.041Z,53.71
2019-06-20T09:32:08.467Z,52.38
2019-06-20T09:34:34.691Z,54.22
2019-06-20T09:37:00.852Z,49.94
2019-06-20T09:39:27.044Z,52.43
2019-06-20T09:41:54.363Z,52.93
2019-06-20T09:44:21.012Z,51.70
2019-06-20T09:46:47.115Z,50.86
2019-06-20T09:49:13.275Z,49.91
2019-06-20T09:51:39.323Z,49.54
2019-06-20T09:54:05.640Z,51.44
2019-06-20T09:56:31.897Z,49.63
2019-06-20T09:58:58.324Z,48.49
2019-06-20T10:01:24.666Z,52.72
2019-06-20T10:03:50.702Z,57.14
2019-06-20T10:06:16.935Z,54.84
2019-06-20T10:08:43.077Z,55.26
2019-06-20T10:11:09.464Z,52.74
2019-06-20T10:13:36.864Z,54.00
2019-06-20T10:16:03.255Z,55.12
2019-06-20T10:18:29.450Z,56.03
2019-06-20T10:20:55.678Z,55.15
2019-06-20T10:23:21.943Z,54.80
2019-06-20T10:25:49.217Z,54.00
2019-06-20T10:28:17.425Z,54.96
2019-06-20T10:30:44.795Z,57.80
2019-06-20T10:33:11.085Z,55.85
2019-06-20T10:35:37.273Z,55.59
2019-06-20T10:38:03.537Z,55.82
2019-06-20T10:40:30.040Z,55.94
2019-06-20T10:42:56.896Z,53.25
2019-06-20T10:45:25.564Z,53.85
2019-06-20T10:47:52.908Z,54.14
2019-06-20T10:50:19.638Z,53.84
2019-06-20T10:52:45.878Z,55.13
2019-06-20T10:55:12.835Z,54.00
2019-06-20T10:57:41.259Z,54.04
2019-06-20T11:00:08.352Z,52.31
2019-06-20T11:02:34.395Z,52.20
2019-06-20T11:05:00.500Z,53.25
2019-06-20T11:07:26.752Z,51.55
2019-06-20T11:09:52.883Z,50.89
2019-06-20T11:12:19.198Z,50.27
2019-06-20T11:14:46.215Z,50.21
2019-06-20T11:17:13.662Z,49.57
2019-06-20T11:19:41.684Z,49.51
2019-06-20T11:22:07.778Z,49.88
2019-06-20T11:24:34.015Z,49.83
2019-06-20T11:27:00.064Z,49.37
2019-06-20T11:29:26.186Z,49.32
2019-06-20T11:31:52.314Z,48.40
2019-06-20T11:34:18.372Z,49.66
2019-06-20T11:36:45.118Z,49.36
2019-06-20T11:39:11.475Z,49.30
2019-06-20T11:41:38.109Z,50.58
2019-06-20T11:44:05.509Z,52.15
2019-06-20T11:46:31.673Z,50.92
2019-06-20T11:48:57.759Z,51.67
2019-06-20T11:51:23.814Z,49.79
2019-06-20T11:53:49.913Z,50.42
2019-06-20T11:56:15.972Z,51.09
2019-06-20T11:58:42.479Z,50.77
2019-06-20T12:01:08.510Z,52.49
2019-06-20T12:03:34.642Z,51.78
2019-06-20T12:06:00.741Z,53.43
2019-06-20T12:08:26.830Z,51.67
2019-06-20T12:10:52.884Z,48.54
2019-06-20T12:13:19.063Z,47.84
2019-06-20T12:15:46.577Z,47.42
2019-06-20T12:18:12.863Z,45.83
2019-06-20T12:20:39.643Z,45.30
2019-06-20T12:23:07.059Z,46.75
2019-06-20T12:25:33.230Z,46.47
2019-06-20T12:27:59.365Z,43.91
2019-06-20T12:30:25.687Z,46.38
2019-06-20T12:32:51.966Z,46.30
2019-06-20T12:35:18.354Z,44.98
2019-06-20T12:37:45.195Z,46.14
2019-06-20T12:40:14.160Z,46.93
2019-06-20T12:42:41.778Z,46.59
2019-06-20T12:45:08.524Z,46.31
2019-06-20T12:47:38.238Z,45.39
2019-06-20T12:50:07.595Z,45.48
2019-06-20T12:52:33.815Z,47.44
2019-06-20T12:54:59.912Z,43.86
2019-06-20T12:57:25.976Z,45.53
2019-06-20T12:59:52.080Z,45.61
2019-06-20T13:02:18.239Z,47.58
2019-06-20T13:04:45.985Z,47.86
2019-06-20T13:07:12.443Z,46.25
2019-06-20T13:09:39.440Z,46.94
2019-06-20T13:12:06.660Z,44.17
2019-06-20T13:14:32.895Z,44.65
2019-06-20T13:16:58.945Z,42.58
2019-06-20T13:19:25.497Z,42.62
2019-06-20T13:21:51.677Z,44.09
2019-06-20T13:24:18.924Z,42.95
2019-06-20T13:26:45.118Z,43.28
2019-06-20T13:29:11.392Z,44.19
2019-06-20T13:31:51.466Z,42.37
2019-06-20T13:34:05.746Z,44.87
2019-06-20T13:36:32.075Z,43.59
2019-06-20T13:38:58.162Z,45.52
2019-06-20T13:41:24.303Z,44.46
2019-06-20T13:43:50.608Z,46.04
2019-06-20T13:46:16.812Z,44.52
2019-06-20T13:48:43.994Z,42.54
2019-06-20T13:51:11.944Z,43.65
2019-06-20T13:53:39.228Z,42.89
2019-06-20T13:56:06.445Z,41.97
2019-06-20T13:58:32.607Z,43.68
2019-06-20T14:00:58.948Z,43.42
2019-06-20T14:03:25.073Z,43.97
2019-06-20T14:05:51.686Z,43.06
2019-06-20T14:08:18.040Z,42.86
2019-06-20T14:10:46.012Z,41.67
2019-06-20T14:13:19.289Z,41.57
2019-06-20T14:15:42.685Z,42.12
2019-06-20T14:18:08.879Z,41.75
2019-06-20T14:20:35.071Z,40.01
2019-06-20T14:23:01.329Z,43.59
2019-06-20T14:25:30.399Z,41.51
2019-06-20T14:27:57.622Z,40.40
2019-06-20T14:30:24.583Z,42.68
2019-06-20T14:32:51.461Z,41.36
2019-06-20T14:35:18.148Z,42.25
2019-06-20T14:37:46.046Z,44.21
2019-06-20T14:40:13.247Z,42.01
2019-06-20T14:42:39.607Z,41.60
2019-06-20T14:45:08.530Z,42.24
2019-06-20T14:47:35.427Z,41.81
2019-06-20T14:50:01.699Z,42.62
2019-06-20T14:52:27.903Z,40.33
2019-06-20T14:54:54.082Z,42.36
2019-06-20T14:57:20.118Z,41.65
2019-06-20T14:59:46.996Z,43.28
2019-06-20T15:02:14.427Z,44.12
2019-06-20T15:04:40.574Z,44.40
2019-06-20T15:07:06.731Z,45.05
2019-06-20T15:09:32.930Z,45.50
2019-06-20T15:11:58.998Z,45.99
2019-06-20T15:14:25.237Z,45.64
2019-06-20T15:16:51.490Z,46.26
2019-06-20T15:19:17.571Z,49.15
2019-06-20T15:21:45.649Z,46.19
2019-06-20T15:24:12.788Z,46.85
2019-06-20T15:26:38.918Z,46.40
2019-06-20T15:29:06.244Z,43.69
2019-06-20T15:31:32.734Z,43.16
2019-06-20T15:33:58.848Z,44.68
2019-06-20T15:36:25.734Z,45.64
2019-06-20T15:38:52.994Z,45.67
2019-06-20T15:41:19.173Z,44.63
2019-06-20T15:43:45.442Z,44.54
2019-06-20T15:46:11.516Z,46.11
2019-06-20T15:48:37.901Z,45.78
2019-06-20T15:51:03.975Z,45.33
2019-06-20T15:53:30.076Z,44.14
2019-06-20T15:55:56.275Z,44.00
2019-06-20T15:58:22.484Z,44.81
2019-06-20T16:00:48.830Z,46.16
2019-06-20T16:03:15.054Z,45.70
2019-06-20T16:05:41.387Z,44.03
2019-06-20T16:08:07.739Z,45.49
2019-06-20T16:10:33.808Z,44.57
2019-06-20T16:12:59.925Z,45.27
2019-06-20T16:15:26.603Z,45.55
2019-06-20T16:17:52.929Z,45.79
2019-06-20T16:20:21.222Z,45.51
2019-06-20T16:22:47.570Z,44.94
2019-06-20T16:25:15.172Z,45.09
2019-06-20T16:27:43.483Z,44.96
2019-06-20T16:30:10.862Z,45.95
2019-06-20T16:32:37.138Z,45.00
2019-06-20T16:35:07.389Z,46.86
2019-06-20T16:37:34.643Z,45.36
2019-06-20T16:40:00.972Z,46.31
2019-06-20T16:42:31.051Z,47.37
2019-06-20T16:45:04.030Z,45.71
2019-06-20T16:47:30.305Z,49.42
2019-06-20T16:49:56.660Z,49.64
2019-06-20T16:52:22.993Z,50.37
2019-06-20T16:54:49.159Z,49.23
2019-06-20T16:57:15.425Z,47.66
2019-06-20T16:59:42.782Z,49.38
2019-06-20T17:02:10.163Z,50.41
2019-06-20T17:04:36.349Z,49.25
2019-06-20T17:07:02.777Z,48.78
2019-06-20T17:09:29.007Z,48.15
2019-06-20T17:11:55.222Z,45.92
2019-06-20T17:14:21.437Z,48.24
2019-06-20T17:16:47.693Z,49.04
2019-06-20T17:19:14.010Z,48.76
2019-06-20T17:21:40.347Z,49.18
2019-06-20T17:24:08.823Z,50.48
2019-06-20T17:26:34.957Z,47.48
2019-06-20T17:29:01.750Z,49.48
2019-06-20T17:31:28.125Z,49.12
2019-06-20T17:33:57.782Z,50.33
2019-06-20T17:36:22.525Z,50.25
2019-06-20T17:38:48.754Z,49.54
2019-06-20T17:41:14.970Z,51.05
2019-06-20T17:43:41.174Z,49.89
2019-06-20T17:46:07.513Z,51.03
2019-06-20T17:48:33.756Z,50.94
2019-06-20T17:51:00.029Z,52.33
2019-06-20T17:53:26.133Z,51.56
2019-06-20T17:55:52.247Z,51.45
2019-06-20T17:58:18.316Z,52.30
2019-06-20T18:00:44.507Z,51.75
2019-06-20T18:03:10.947Z,51.79
2019-06-20T18:05:37.383Z,51.88
2019-06-20T18:08:14.501Z,53.94
2019-06-20T18:10:34.084Z,52.49
2019-06-20T18:13:00.455Z,56.21
2019-06-20T18:15:26.905Z,55.78
2019-06-20T18:17:53.081Z,54.03
2019-06-20T18:20:19.664Z,55.79
2019-06-20T18:22:46.007Z,57.39
2019-06-20T18:25:12.410Z,56.54
2019-06-20T18:27:38.515Z,58.38
2019-06-20T18:30:07.278Z,58.44
2019-06-20T18:32:33.569Z,58.80
2019-06-20T18:35:02.194Z,58.85
2019-06-20T18:37:31.815Z,59.58
2019-06-20T18:39:55.997Z,59.34
2019-06-20T18:42:22.215Z,60.04
2019-06-20T18:44:49.498Z,59.56
2019-06-20T18:47:15.785Z,59.94
2019-06-20T18:49:41.839Z,59.72
2019-06-20T18:52:09.098Z,59.40
2019-06-20T18:54:35.221Z,60.70
2019-06-20T18:57:01.327Z,60.17
2019-06-20T18:59:27.470Z,60.51
2019-06-20T19:01:53.830Z,60.58
2019-06-20T19:04:20.133Z,61.35
2019-06-20T19:06:46.246Z,61.48
2019-06-20T19:09:12.295Z,61.35
2019-06-20T19:11:38.725Z,62.29
2019-06-20T19:14:05.109Z,62.19
2019-06-20T19:16:31.628Z,63.95
2019-06-20T19:18:57.821Z,63.76
2019-06-20T19:21:23.871Z,64.79
2019-06-20T19:23:50.215Z,67.27
2019-06-20T19:26:16.333Z,68.79
2019-06-20T19:28:55.006Z,66.50
2019-06-20T19:31:20.907Z,67.39
2019-06-20T19:33:51.931Z,65.84
2019-06-20T19:36:16.871Z,64.14
2019-06-20T19:38:44.034Z,64.54
2019-06-20T19:41:10.254Z,64.58
2019-06-20T19:43:36.369Z,64.33
2019-06-20T19:46:02.819Z,64.63
2019-06-20T19:48:29.071Z,64.53
2019-06-20T19:50:55.261Z,64.97
2019-06-20T19:53:21.581Z,63.90
2019-06-20T19:55:47.843Z,65.33
2019-06-20T19:58:15.585Z,65.13
2019-06-20T20:00:42.644Z,65.59
2019-06-20T20:03:10.272Z,65.74
2019-06-20T20:05:37.000Z,66.25
2019-06-20T20:08:04.107Z,66.57
2019-06-20T20:10:47.916Z,65.79
2019-06-20T20:13:15.565Z,66.73
2019-06-20T20:15:44.432Z,67.36
2019-06-20T20:18:12.466Z,71.08
2019-06-20T20:20:38.743Z,72.84
2019-06-20T20:23:05.038Z,72.13
2019-06-20T20:25:31.226Z,73.39
2019-06-20T20:27:57.590Z,71.32
2019-06-20T20:30:24.104Z,72.31
2019-06-20T20:32:50.434Z,70.98
2019-06-20T20:35:16.783Z,71.55
2019-06-20T20:37:42.940Z,70.90
2019-06-20T20:40:09.940Z,70.71
2019-06-20T20:42:37.507Z,69.30
2019-06-20T20:45:05.654Z,70.21
2019-06-20T20:47:31.889Z,69.48
2019-06-20T20:49:58.084Z,68.86
2019-06-20T20:52:24.188Z,70.19
2019-06-20T20:54:50.498Z,70.50
2019-06-20T20:57:16.571Z,70.24
2019-06-20T20:59:42.816Z,71.46
2019-06-20T21:02:09.041Z,71.63
2019-06-20T21:04:35.144Z,71.30
2019-06-20T21:07:01.210Z,72.41
2019-06-20T21:09:27.543Z,73.50
2019-06-20T21:11:53.677Z,74.07
2019-06-20T21:14:19.974Z,74.29
2019-06-20T21:16:46.327Z,74.57
2019-06-20T21:19:12.509Z,75.21
2019-06-20T21:21:38.824Z,74.29
2019-06-20T21:24:04.989Z,74.42
2019-06-20T21:26:31.049Z,75.24
2019-06-20T21:28:57.288Z,76.27
2019-06-20T21:31:23.472Z,76.65
2019-06-20T21:33:49.656Z,76.17
2019-06-20T21:36:16.001Z,76.19
2019-06-20T21:38:42.164Z,76.07
2019-06-20T21:41:08.328Z,75.87
2019-06-20T21:43:34.486Z,75.45
2019-06-20T21:46:00.782Z,75.27
2019-06-20T21:48:26.933Z,75.54
2019-06-20T21:50:53.057Z,75.69
2019-06-20T21:53:19.157Z,75.41
2019-06-20T21:55:45.399Z,75.64
2019-06-20T21:58:11.676Z,76.85
2019-06-20T22:00:41.885Z,76.48
2019-06-20T22:03:10.358Z,77.19
2019-06-20T22:05:37.779Z,77.38
2019-06-20T22:08:04.238Z,75.96
2019-06-20T22:10:30.368Z,75.83
2019-06-20T22:12:56.638Z,76.04
2019-06-20T22:15:22.958Z,75.97
2019-06-20T22:17:49.046Z,75.14
2019-06-20T22:20:15.436Z,74.94
2019-06-20T22:22:41.649Z,74.99
2019-06-20T22:25:08.320Z,74.87
2019-06-20T22:27:34.585Z,74.15
2019-06-20T22:30:03.612Z,74.56
2019-06-20T22:32:29.060Z,74.84
2019-06-20T22:34:56.206Z,74.53
2019-06-20T22:37:22.463Z,74.17
2019-06-20T22:39:49.718Z,74.36
2019-06-20T22:42:15.935Z,74.25
2019-06-20T22:44:44.874Z,73.89
2019-06-20T22:47:11.100Z,73.80
2019-06-20T22:49:37.326Z,73.90
2019-06-20T22:52:03.620Z,73.91
2019-06-20T22:54:29.781Z,73.98
2019-06-20T22:56:55.871Z,74.44
2019-06-20T22:59:21.993Z,74.28
2019-06-20T23:01:48.280Z,75.01
2019-06-20T23:04:14.335Z,75.62
2019-06-20T23:06:55.496Z,76.34
2019-06-20T23:09:08.386Z,76.25
2019-06-20T23:11:34.696Z,77.08
2019-06-20T23:14:00.844Z,76.98
2019-06-20T23:16:28.035Z,76.86
2019-06-20T23:18:55.186Z,77.47
2019-06-20T23:21:21.289Z,76.89
2019-06-20T23:23:47.347Z,76.24
2019-06-20T23:26:13.436Z,76.30
2019-06-20T23:28:41.551Z,76.72
2019-06-20T23:31:07.844Z,77.28
2019-06-20T23:33:33.945Z,77.19
2019-06-20T23:36:00.081Z,76.74
2019-06-20T23:38:26.403Z,76.18
2019-06-20T23:40:52.793Z,76.07
2019-06-20T23:43:19.016Z,76.90
2019-06-20T23:45:45.224Z,77.18
2019-06-20T23:48:11.323Z,77.01
2019-06-20T23:50:37.570Z,76.39
2019-06-20T23:53:03.891Z,75.96
2019-06-20T23:55:30.903Z,75.89
2019-06-20T23:57:57.042Z,75.93
